KFPY/FPY METAR and TAF weather

Enter ICAO airport designator
Station Type Date Time Source
KFPY METAR 2021/05/13 19:35 UTC NOAA

KFPY 131935Z AUTO 02009KT 10SM OVC013 18/17 A3015 RMK AO2 T01770166


Station Type Date Time Source
KFPY Decoded METAR 2021/05/13 19:35 UTC NOAA

Station name not available
May 13, 2021 - 03:35 PM EDT / 2021.05.13 1935 UTC
Wind: from the NNE (020 degrees) at 10 MPH (9 KT):0
Visibility: 10 mile(s):0
Sky conditions: overcast
Temperature: 63.9 F (17.7 C)
Dew Point: 61.9 F (16.6 C)
Relative Humidity: 93%
Pressure (altimeter): 30.15 in. Hg (1020 hPa)
ob: KFPY 131935Z AUTO 02009KT 10SM OVC013 18/17 A3015 RMK AO2 T01770166
cycle: 19

Station Type Date Time Source
KFPY TAF UTC NOAA

Error!

Example: see airport list